Time;durP1;ratioP1;P1;durP2;ratioP2;P2;SDS_P1;SDS_P2;PMS_P1;PMS_P2;Temp;Humidity;BMP_temperature;BMP_pressure;BME280_temperature;BME280_humidity;BME280_pressure;Samples;Min_cycle;Max_cycle;Signal;HPM_P1;HPM_P2
2021/04/27 00:01:35;;;;;;;;;;;;;;;20.90;42.08;100663.69;5096363;28;1010;-50
2021/04/27 00:04:01;;;;;;;;;;;;;;;20.99;41.77;100655.47;5096435;28;740;-49
2021/04/27 00:06:26;;;;;;;;;;;;;;;21.33;41.28;100651.47;5096440;28;819;-52
2021/04/27 00:08:52;;;;;;;;;;;;;;;21.48;40.80;100656.66;5077886;28;870;-50
2021/04/27 00:11:18;;;;;;;;;;;;;;;21.68;40.30;100662.91;5096079;28;1107;-48
2021/04/27 00:13:43;;;;;;;;;;;;;;;21.52;40.52;100666.03;5058352;28;1154;-50
2021/04/27 00:16:09;;;;;;;;;;;;;;;21.38;40.99;100659.66;5076494;28;775;-49
2021/04/27 00:18:34;;;;;;;;;;;;;;;21.43;40.67;100661.50;5115822;28;1982;-50
2021/04/27 00:21:00;;;;;;;;;;;;;;;20.96;41.86;100656.91;5116685;28;842;-52
2021/04/27 00:23:25;;;;;;;;;;;;;;;21.30;41.28;100658.44;5116599;28;778;-49
2021/04/27 00:25:51;;;;;;;;;;;;;;;21.41;40.84;100649.94;5116521;28;866;-49
2021/04/27 00:28:16;;;;;;;;;;;;;;;21.18;41.27;100647.91;5116628;28;485;-51
2021/04/27 00:30:42;;;;;;;;;;;;;;;20.99;41.80;100652.72;5116532;28;759;-48
2021/04/27 00:33:07;;;;;;;;;;;;;;;20.98;41.71;100653.84;5116002;28;950;-48
2021/04/27 00:35:32;;;;;;;;;;;;;;;21.07;41.55;100657.53;5116978;28;846;-51
2021/04/27 00:37:58;;;;;;;;;;;;;;;21.03;41.56;100657.31;5116330;28;1905;-49
2021/04/27 00:40:24;;;;;;;;;;;;;;;20.98;41.79;100654.66;5116437;28;846;-53
2021/04/27 00:42:49;;;;;;;;;;;;;;;;;;5116485;28;759;-50
2021/04/27 00:45:16;;;;;;;;;;;;;;;21.03;41.57;100659.28;5116216;28;743;-52
2021/04/27 00:47:41;;;;;;;;;;;;;;;21.18;41.25;100641.53;5097852;28;1657;-49
2021/04/27 00:50:08;;;;;;;;;;;;;;;21.20;40.87;100640.09;5096009;28;862;-53
2021/04/27 00:52:33;;;;;;;;;;;;;;;21.18;40.97;100638.78;5095893;28;818;-51
2021/04/27 00:54:59;;;;;;;;;;;;;;;21.03;41.49;100637.97;5078690;28;831;-54
2021/04/27 00:57:25;;;;;;;;;;;;;;;21.12;41.27;100627.00;5095932;28;743;-51
2021/04/27 00:59:52;;;;;;;;;;;;;;;21.12;41.32;100631.72;5095821;28;1913;-50
2021/04/27 01:02:18;;;;;;;;;;;;;;;21.03;41.30;100623.34;5095655;28;966;-51
2021/04/27 01:04:43;;;;;;;;;;;;;;;20.88;41.89;100626.41;5096233;28;759;-53
2021/04/27 01:07:09;;;;;;;;;;;;;;;21.12;41.29;100621.47;5096105;28;771;-51
2021/04/27 01:09:46;;;;;;;;;;;;;;;21.18;41.01;100620.25;5095894;28;739;-50
2021/04/27 01:12:16;;;;;;;;;;;;;;;21.18;41.17;100620.25;5087958;28;1182;-51
2021/04/27 01:14:43;;;;;;;;;;;;;;;21.05;41.17;100620.25;5057385;28;1040;-49
2021/04/27 01:17:14;;;;;;;;;;;;;;;20.99;41.33;100616.78;5067645;28;975;-52
2021/04/27 01:19:55;;;;;;;;;;;;;;;21.07;41.14;100632.66;5065618;28;1910;-51
2021/04/27 01:22:35;;;;;;;;;;;;;;;21.19;41.07;100637.66;5081534;28;1106;-52
2021/04/27 01:25:00;;;;;;;;;;;;;;;21.26;40.91;100638.06;5099182;28;843;-49
2021/04/27 01:27:26;;;;;;;;;;;;;;;20.95;41.62;100626.81;5081418;28;783;-52
2021/04/27 01:29:52;;;;;;;;;;;;;;;21.03;41.23;100623.34;5099320;28;814;-51
2021/04/27 01:32:17;;;;;;;;;;;;;;;21.07;41.35;100626.28;5080666;28;1137;-49
2021/04/27 01:34:45;;;;;;;;;;;;;;;20.83;41.80;100632.84;5081106;28;1244;-49
2021/04/27 01:37:28;;;;;;;;;;;;;;;20.97;41.39;100633.69;5081334;28;1290;-52
2021/04/27 01:39:53;;;;;;;;;;;;;;;20.96;41.44;100629.25;5063929;28;1993;-48
2021/04/27 01:42:19;;;;;;;;;;;;;;;21.12;41.04;100638.06;5099048;28;783;-51
2021/04/27 01:44:44;;;;;;;;;;;;;;;20.95;41.56;100648.94;5080782;28;797;-49
2021/04/27 01:47:10;;;;;;;;;;;;;;;21.19;40.88;100635.69;5079802;28;1657;-51
2021/04/27 01:49:38;;;;;;;;;;;;;;;21.14;40.93;100640.50;5098873;28;779;-50
2021/04/27 01:52:21;;;;;;;;;;;;;;;21.17;40.89;100645.44;5098765;28;590;-54
2021/04/27 01:54:53;;;;;;;;;;;;;;;21.01;41.46;100639.41;5081455;28;810;-49
2021/04/27 01:57:19;;;;;;;;;;;;;;;21.16;40.85;100628.03;5080715;28;866;-51
2021/04/27 01:59:45;;;;;;;;;;;;;;;21.30;40.59;100627.19;5080450;28;1926;-52
2021/04/27 02:02:17;;;;;;;;;;;;;;;20.92;41.36;100632.97;5080001;28;1417;-53
2021/04/27 02:04:55;;;;;;;;;;;;;;;20.73;41.96;100630.28;5098517;28;818;-48
2021/04/27 02:07:46;;;;;;;;;;;;;;;20.98;41.38;100624.22;5096109;28;984;-50
2021/04/27 02:10:12;;;;;;;;;;;;;;;21.10;40.99;100623.75;5080803;28;1394;-52
2021/04/27 02:12:48;;;;;;;;;;;;;;;21.09;41.18;100619.31;5068761;28;1210;-50
2021/04/27 02:15:14;;;;;;;;;;;;;;;21.15;40.98;100604.28;5060125;28;1083;-52
2021/04/27 02:17:41;;;;;;;;;;;;;;;21.05;41.02;100609.19;5103404;28;963;-51
2021/04/27 02:20:08;;;;;;;;;;;;;;;21.00;41.08;100610.13;5083161;28;1995;-49
2021/04/27 02:22:54;;;;;;;;;;;;;;;21.10;40.83;100612.69;5062555;28;1171;-49
2021/04/27 02:25:38;;;;;;;;;;;;;;;21.27;40.48;100616.75;5118652;28;625;-51
2021/04/27 02:28:06;;;;;;;;;;;;;;;21.19;40.67;100612.75;5082773;28;1280;-50
2021/04/27 02:30:32;;;;;;;;;;;;;;;21.31;40.59;100615.03;5118548;28;791;-51
2021/04/27 02:32:58;;;;;;;;;;;;;;;21.11;40.91;100611.56;5099805;28;1172;-49
2021/04/27 02:35:23;;;;;;;;;;;;;;;21.20;40.69;100606.94;5100224;28;1203;-49
2021/04/27 02:37:50;;;;;;;;;;;;;;;21.02;41.11;100607.88;5118688;28;794;-53
2021/04/27 02:40:33;;;;;;;;;;;;;;;20.96;41.25;100606.34;5099810;28;1129;-49
2021/04/27 02:42:59;;;;;;;;;;;;;;;21.20;40.81;100609.69;5100198;28;1261;-51
2021/04/27 02:45:33;;;;;;;;;;;;;;;21.04;41.11;100616.66;5118092;28;1624;-47
2021/04/27 02:48:23;;;;;;;;;;;;;;;21.18;40.83;100623.03;5086089;28;1532;-48
2021/04/27 02:50:52;;;;;;;;;;;;;;;21.19;40.72;100619.09;5097956;28;818;-51
2021/04/27 02:53:18;;;;;;;;;;;;;;;21.10;40.93;100623.75;5079314;28;1367;-53
2021/04/27 02:55:44;;;;;;;;;;;;;;;21.12;40.85;100621.47;5097462;28;767;-51
2021/04/27 02:58:09;;;;;;;;;;;;;;;21.00;41.11;100615.66;5079284;28;2046;-56
2021/04/27 03:00:38;;;;;;;;;;;;;;;21.29;40.57;100625.56;5096368;28;1264;-57
2021/04/27 03:03:07;;;;;;;;;;;;;;;21.00;41.33;100623.97;5079173;28;1402;-56
2021/04/27 03:05:32;;;;;;;;;;;;;;;21.25;40.54;100630.06;5079570;28;1102;-57
2021/04/27 03:07:58;;;;;;;;;;;;;;;21.55;39.83;100631.38;5097270;28;764;-58
2021/04/27 03:10:23;;;;;;;;;;;;;;;21.45;40.02;100632.41;5097232;28;988;-59
2021/04/27 03:12:49;;;;;;;;;;;;;;;20.94;41.41;100639.78;5083946;28;1139;-57
2021/04/27 03:15:15;;;;;;;;;;;;;;;21.22;40.76;100631.50;5076884;28;1024;-58
2021/04/27 03:17:41;;;;;;;;;;;;;;;21.16;40.99;100624.44;5083992;28;999;-57
2021/04/27 03:20:09;;;;;;;;;;;;;;;21.06;41.00;100630.19;5117491;28;1917;-59
2021/04/27 03:22:41;;;;;;;;;;;;;;;21.07;41.14;100632.66;5099226;28;1216;-47
2021/04/27 03:25:06;;;;;;;;;;;;;;;;;;5099502;28;1283;-57
2021/04/27 03:27:32;;;;;;;;;;;;;;;21.02;41.05;100621.69;5099477;28;1191;-58
2021/04/27 03:30:25;;;;;;;;;;;;;;;21.16;41.02;100619.72;5098775;28;1156;-58
2021/04/27 03:32:56;;;;;;;;;;;;;;;21.20;40.69;100626.28;5098775;28;1025;-52
2021/04/27 03:35:22;;;;;;;;;;;;;;;21.07;40.89;100634.59;5099285;28;1225;-49
2021/04/27 03:37:48;;;;;;;;;;;;;;;21.16;40.85;100643.81;5098954;28;1540;-58
2021/04/27 03:40:13;;;;;;;;;;;;;;;21.13;41.08;100642.47;5116835;28;1917;-47
2021/04/27 03:42:40;;;;;;;;;;;;;;;21.10;40.99;100647.81;5098705;28;1159;-58
2021/04/27 03:45:08;;;;;;;;;;;;;;;21.29;40.54;100647.69;5099203;28;794;-54
2021/04/27 03:47:33;;;;;;;;;;;;;;;21.36;40.17;100659.13;5099616;28;1739;-58
2021/04/27 03:49:58;;;;;;;;;;;;;;;21.07;41.01;100663.06;5078783;28;1209;-50
2021/04/27 03:52:24;;;;;;;;;;;;;;;21.01;41.06;100667.03;5074612;28;1615;-49
2021/04/27 03:54:50;;;;;;;;;;;;;;;21.02;41.13;100669.50;5093276;28;755;-54
2021/04/27 03:57:15;;;;;;;;;;;;;;;21.28;40.44;100665.41;5067112;28;1186;-56
2021/04/27 03:59:52;;;;;;;;;;;;;;;21.07;41.00;100654.78;5077991;28;1917;-57
2021/04/27 04:02:18;;;;;;;;;;;;;;;21.05;41.17;100654.25;5078146;28;1114;-49
2021/04/27 04:04:43;;;;;;;;;;;;;;;20.94;41.38;100648.09;5096184;28;786;-57
2021/04/27 04:07:14;;;;;;;;;;;;;;;20.84;41.35;100646.34;5096869;28;775;-57
2021/04/27 04:10:12;;;;;;;;;;;;;;;21.10;40.92;100640.31;5062224;28;1271;-47
2021/04/27 04:12:38;;;;;;;;;;;;;;;21.10;40.79;100643.09;5084880;28;1174;-56
2021/04/27 04:15:04;;;;;;;;;;;;;;;21.08;40.88;100645.31;5076388;28;1086;-49
2021/04/27 04:17:32;;;;;;;;;;;;;;;21.15;40.69;100651.28;5077484;28;1219;-49
2021/04/27 04:19:58;;;;;;;;;;;;;;;21.13;40.75;100645.22;5096185;28;1971;-55
2021/04/27 04:22:24;;;;;;;;;;;;;;;20.88;41.27;100648.50;5077871;28;1189;-55
2021/04/27 04:24:56;;;;;;;;;;;;;;;21.00;41.27;100630.28;5078182;28;1356;-49
2021/04/27 04:27:21;;;;;;;;;;;;;;;21.01;40.93;100629.19;5096077;28;783;-49
2021/04/27 04:30:00;;;;;;;;;;;;;;;21.00;41.16;100643.31;5077958;28;1341;-57
2021/04/27 04:32:41;;;;;;;;;;;;;;;21.03;41.04;100635.19;5079867;28;938;-58
2021/04/27 04:35:26;;;;;;;;;;;;;;;20.69;41.62;100627.28;5095008;28;887;-53
2021/04/27 04:38:10;;;;;;;;;;;;;;;20.75;41.65;100628.84;5094792;28;1971;-45
2021/04/27 04:40:55;;;;;;;;;;;;;;;20.99;41.19;100627.84;5095917;28;625;-49
2021/04/27 04:43:38;;;;;;;;;;;;;;;20.85;41.45;100628.63;5095310;28;629;-51
2021/04/27 04:46:22;;;;;;;;;;;;;;;20.96;41.29;100622.94;5094618;28;1499;-50
2021/04/27 04:49:11;;;;;;;;;;;;;;;21.28;40.60;100619.22;5066734;28;1348;-57
2021/04/27 04:52:11;;;;;;;;;;;;;;;21.32;40.58;100614.72;5096781;28;1114;-56
2021/04/27 04:54:55;;;;;;;;;;;;;;;21.24;40.42;100615.44;5099444;28;1157;-59
2021/04/27 04:57:34;;;;;;;;;;;;;;;21.32;40.39;100622.16;5081539;28;1404;-50
2021/04/27 05:00:00;;;;;;;;;;;;;;;21.42;40.19;100624.72;5099482;28;1905;-48
2021/04/27 05:02:26;;;;;;;;;;;;;;;21.51;40.09;100617.31;5075106;28;1320;-60
2021/04/27 05:05:26;;;;;;;;;;;;;;;21.35;40.50;100613.28;5025988;28;1217;-54
2021/04/27 05:08:15;;;;;;;;;;;;;;;21.43;40.42;100614.47;5113150;28;1059;-48
2021/04/27 05:10:59;;;;;;;;;;;;;;;21.69;39.74;100609.22;5120122;28;665;-57
2021/04/27 05:13:35;;;;;;;;;;;;;;;21.40;40.20;100613.13;5081735;28;1157;-47
2021/04/27 05:16:01;;;;;;;;;;;;;;;21.39;40.35;100619.00;5099044;28;1275;-48
2021/04/27 05:18:26;;;;;;;;;;;;;;;21.68;39.74;100615.88;5077578;28;1976;-54
2021/04/27 05:20:52;;;;;;;;;;;;;;;21.58;39.91;100616.94;5078706;28;790;-58
2021/04/27 05:23:18;;;;;;;;;;;;;;;21.69;39.71;100609.22;5079425;28;811;-56
2021/04/27 05:25:47;;;;;;;;;;;;;;;21.51;40.32;100600.72;5077812;28;1358;-55
2021/04/27 05:28:13;;;;;;;;;;;;;;;21.70;39.93;100605.31;5078818;28;880;-54
2021/04/27 05:30:39;;;;;;;;;;;;;;;21.67;39.93;100611.47;5078673;28;862;-52
2021/04/27 05:33:04;;;;;;;;;;;;;;;21.79;39.73;100610.91;5114346;28;926;-49
2021/04/27 05:35:30;;;;;;;;;;;;;;;21.74;39.63;100625.72;5119328;28;803;-50
2021/04/27 05:37:55;;;;;;;;;;;;;;;21.75;39.43;100624.56;5119459;28;814;-49
2021/04/27 05:40:21;;;;;;;;;;;;;;;21.52;40.28;100627.28;5119275;28;1905;-53
2021/04/27 05:42:46;;;;;;;;;;;;;;;21.73;39.72;100624.06;5118651;28;830;-57
2021/04/27 05:45:11;;;;;;;;;;;;;;;21.83;39.47;100618.28;5119399;28;779;-57
2021/04/27 05:47:37;;;;;;;;;;;;;;;21.41;40.52;100625.84;5100928;28;1691;-55
2021/04/27 05:50:03;;;;;;;;;;;;;;;21.51;40.02;100622.84;5098698;28;739;-50
2021/04/27 05:52:29;;;;;;;;;;;;;;;21.40;40.19;100621.44;5098705;28;755;-57
2021/04/27 05:54:54;;;;;;;;;;;;;;;21.13;41.08;100623.13;5098621;28;794;-57
2021/04/27 05:57:20;;;;;;;;;;;;;;;21.05;41.24;100626.59;5098154;28;771;-56
2021/04/27 05:59:45;;;;;;;;;;;;;;;21.08;41.09;100625.97;5100862;28;1898;-57
2021/04/27 06:02:10;;;;;;;;;;;;;;;21.02;41.38;100627.22;5097320;28;1079;-50
2021/04/27 06:04:36;;;;;;;;;;;;;;;21.20;40.91;100615.22;5097977;28;727;-55
2021/04/27 06:07:01;;;;;;;;;;;;;;;21.06;41.29;100606.13;5098342;28;740;-48
2021/04/27 06:09:27;;;;;;;;;;;;;;;20.93;41.63;100613.31;5098296;28;861;-48
2021/04/27 06:11:54;;;;;;;;;;;;;;;21.05;41.33;100612.78;5097608;28;917;-49
2021/04/27 06:14:20;;;;;;;;;;;;;;;21.15;41.10;100618.13;5097807;28;1062;-48
2021/04/27 06:16:45;;;;;;;;;;;;;;;21.39;40.46;100614.25;5102151;28;1036;-49
2021/04/27 06:19:11;;;;;;;;;;;;;;;21.45;40.43;100626.06;5118318;28;1971;-50
2021/04/27 06:21:36;;;;;;;;;;;;;;;21.47;40.27;100621.03;5118425;28;810;-51
2021/04/27 06:24:02;;;;;;;;;;;;;;;21.57;40.00;100626.34;5118356;28;810;-49
2021/04/27 06:26:27;;;;;;;;;;;;;;;21.43;40.46;100631.06;5118447;28;843;-49
2021/04/27 06:28:52;;;;;;;;;;;;;;;21.48;40.28;100633.72;5118642;28;815;-47
2021/04/27 06:31:18;;;;;;;;;;;;;;;21.60;39.89;100647.88;5117838;28;950;-56
2021/04/27 06:33:43;;;;;;;;;;;;;;;21.61;39.99;100646.72;5118055;28;826;-46
2021/04/27 06:36:09;;;;;;;;;;;;;;;21.60;40.05;100639.59;5118127;28;783;-56
2021/04/27 06:38:34;;;;;;;;;;;;;;;21.79;39.43;100639.41;5117683;28;1909;-46
2021/04/27 06:41:00;;;;;;;;;;;;;;;21.73;39.75;100651.75;5118139;28;771;-57
2021/04/27 06:43:25;;;;;;;;;;;;;;;21.64;39.75;100648.91;5118122;28;886;-46
2021/04/27 06:45:51;;;;;;;;;;;;;;;21.22;40.75;100642.56;5115113;28;1601;-54
2021/04/27 06:48:16;;;;;;;;;;;;;;;21.13;41.00;100649.97;5096941;28;998;-47
2021/04/27 06:50:42;;;;;;;;;;;;;;;21.23;41.05;100649.72;5097366;28;807;-53
2021/04/27 06:53:08;;;;;;;;;;;;;;;21.50;40.39;100648.91;5097193;28;870;-56
2021/04/27 06:55:33;;;;;;;;;;;;;;;21.51;40.32;100646.94;5097362;28;830;-46
2021/04/27 06:58:03;;;;;;;;;;;;;;;21.26;40.67;100631.72;5097430;28;772;-55
2021/04/27 07:00:28;;;;;;;;;;;;;;;21.42;40.43;100623.88;5096678;28;1979;-57
2021/04/27 07:02:54;;;;;;;;;;;;;;;21.23;41.04;100641.44;5096715;28;1005;-48
2021/04/27 07:05:19;;;;;;;;;;;;;;;21.36;40.57;100639.78;5096982;28;802;-51
2021/04/27 07:07:45;;;;;;;;;;;;;;;21.30;40.62;100638.25;5097412;28;771;-50
2021/04/27 07:10:11;;;;;;;;;;;;;;;21.32;40.56;100647.06;5096816;28;791;-54
2021/04/27 07:12:36;;;;;;;;;;;;;;;21.52;40.23;100645.84;5085338;28;1064;-53
2021/04/27 07:15:02;;;;;;;;;;;;;;;21.57;40.06;100639.38;5076126;28;1008;-47
2021/04/27 07:17:27;;;;;;;;;;;;;;;21.74;39.69;100633.16;5086897;28;1007;-56
2021/04/27 07:19:54;;;;;;;;;;;;;;;21.56;40.14;100629.44;5096766;28;1914;-47
2021/04/27 07:22:20;;;;;;;;;;;;;;;21.64;40.03;100625.94;5096795;28;775;-46
2021/04/27 07:24:45;;;;;;;;;;;;;;;21.70;39.74;100624.69;5096830;28;775;-55
2021/04/27 07:27:10;;;;;;;;;;;;;;;21.75;39.74;100632.84;5096894;28;811;-47
2021/04/27 07:29:36;;;;;;;;;;;;;;;21.74;39.79;100628.47;5096814;28;767;-47
2021/04/27 07:32:03;;;;;;;;;;;;;;;21.88;39.38;100629.25;5095202;28;1071;-49
2021/04/27 07:34:29;;;;;;;;;;;;;;;22.02;39.20;100631.13;5096455;28;759;-47
2021/04/27 07:36:54;;;;;;;;;;;;;;;21.85;39.52;100621.56;5096773;28;787;-56
2021/04/27 07:39:20;;;;;;;;;;;;;;;21.74;39.71;100622.94;5096085;28;1907;-55
2021/04/27 07:41:46;;;;;;;;;;;;;;;21.47;40.38;100619.06;5096588;28;822;-48
2021/04/27 07:44:11;;;;;;;;;;;;;;;21.37;40.75;100624.84;5096533;28;855;-50
2021/04/27 07:46:36;;;;;;;;;;;;;;;21.24;40.86;100626.50;5095635;28;1590;-51
2021/04/27 07:49:02;;;;;;;;;;;;;;;21.39;40.40;100621.75;5096526;28;726;-47
2021/04/27 07:51:28;;;;;;;;;;;;;;;21.41;40.46;100617.56;5096373;28;771;-56
2021/04/27 07:53:53;;;;;;;;;;;;;;;21.68;39.79;100607.56;5095345;28;1162;-56
2021/04/27 07:56:19;;;;;;;;;;;;;;;21.73;39.83;100612.16;5095913;28;803;-51
2021/04/27 07:58:44;;;;;;;;;;;;;;;21.69;39.69;100606.44;5096099;28;1910;-56
2021/04/27 08:01:10;;;;;;;;;;;;;;;21.64;40.08;100607.41;5096279;28;806;-56
2021/04/27 08:03:35;;;;;;;;;;;;;;;21.80;39.49;100602.31;5095672;28;1006;-48
2021/04/27 08:06:01;;;;;;;;;;;;;;;21.72;39.96;100608.59;5095714;28;803;-48
2021/04/27 08:08:26;;;;;;;;;;;;;;;21.68;39.71;100599.28;5077880;28;1212;-55
2021/04/27 08:10:52;;;;;;;;;;;;;;;21.74;39.88;100606.34;5096191;28;799;-48
2021/04/27 08:13:17;;;;;;;;;;;;;;;21.65;40.07;100608.19;5079036;28;1134;-55
2021/04/27 08:15:43;;;;;;;;;;;;;;;21.76;39.69;100606.81;5075663;28;1158;-49
2021/04/27 08:18:09;;;;;;;;;;;;;;;21.53;40.31;100597.66;5108100;28;1002;-50
2021/04/27 08:20:34;;;;;;;;;;;;;;;21.42;40.53;100602.59;5116268;28;846;-48
2021/04/27 08:23:00;;;;;;;;;;;;;;;21.48;40.23;100593.03;5116009;28;767;-49
2021/04/27 08:25:25;;;;;;;;;;;;;;;21.09;41.26;100599.97;5116376;28;838;-47
2021/04/27 08:27:51;;;;;;;;;;;;;;;21.48;40.49;100593.03;5119438;28;787;-54
2021/04/27 08:30:17;;;;;;;;;;;;;;;21.73;39.90;100596.38;5120428;28;751;-52
2021/04/27 08:32:43;;;;;;;;;;;;;;;21.80;39.63;100587.66;5119858;28;1054;-55
2021/04/27 08:35:09;;;;;;;;;;;;;;;21.92;39.57;100590.66;5120367;28;855;-51
2021/04/27 08:37:34;;;;;;;;;;;;;;;21.78;39.80;100593.47;5101678;28;886;-52
2021/04/27 08:40:00;;;;;;;;;;;;;;;21.92;39.47;100598.97;5120616;28;1968;-49
2021/04/27 08:42:25;;;;;;;;;;;;;;;21.91;39.52;100611.19;5120072;28;834;-47
2021/04/27 08:44:51;;;;;;;;;;;;;;;21.09;41.05;100602.75;5120407;28;786;-50
2021/04/27 08:47:18;;;;;;;;;;;;;;;20.59;42.20;100603.41;5105175;28;1643;-54
2021/04/27 08:49:43;;;;;;;;;;;;;;;20.68;42.35;100606.34;5099683;28;751;-49
2021/04/27 08:52:09;;;;;;;;;;;;;;;21.08;41.36;100595.56;5099664;28;751;-51
2021/04/27 08:54:35;;;;;;;;;;;;;;;21.47;40.49;100593.34;5099750;28;811;-52
2021/04/27 08:57:00;;;;;;;;;;;;;;;21.73;39.93;100596.38;5099269;28;763;-51
2021/04/27 08:59:26;;;;;;;;;;;;;;;21.69;40.00;100598.16;5099592;28;1905;-51
2021/04/27 09:01:51;;;;;;;;;;;;;;;21.93;39.28;100599.81;5099245;28;942;-52
2021/04/27 09:04:35;;;;;;;;;;;;;;;21.98;39.29;100594.13;5098893;28;882;-53
2021/04/27 09:07:04;;;;;;;;;;;;;;;21.83;39.73;100585.06;5099376;28;551;-52
2021/04/27 09:09:49;;;;;;;;;;;;;;;21.60;40.17;100588.94;5099711;28;787;-46
2021/04/27 09:12:41;;;;;;;;;;;;;;;21.27;41.02;100573.31;5090875;28;1135;-56
2021/04/27 09:15:08;;;;;;;;;;;;;;;21.16;41.39;100566.38;5040843;28;1353;-55
2021/04/27 09:17:33;;;;;;;;;;;;;;;21.53;40.32;100576.38;5089305;28;986;-51
2021/04/27 09:19:58;;;;;;;;;;;;;;;21.85;39.47;100582.81;5097488;28;1974;-54
2021/04/27 09:22:25;;;;;;;;;;;;;;;21.75;40.00;100577.50;5098881;28;883;-53
2021/04/27 09:25:01;;;;;;;;;;;;;;;21.86;39.57;100578.91;5098406;28;883;-54
2021/04/27 09:27:29;;;;;;;;;;;;;;;22.14;39.18;100577.94;5099190;28;832;-48
2021/04/27 09:29:55;;;;;;;;;;;;;;;21.57;40.30;100584.03;5098214;28;879;-47
2021/04/27 09:32:33;;;;;;;;;;;;;;;21.55;40.34;100572.47;5103068;28;829;-50
2021/04/27 09:35:02;;;;;;;;;;;;;;;21.25;41.26;100569.22;5098268;28;825;-51
2021/04/27 09:37:27;;;;;;;;;;;;;;;21.60;40.23;100564.03;5079922;28;1712;-53
2021/04/27 09:39:52;;;;;;;;;;;;;;;21.90;39.90;100572.75;5098544;28;1967;-49
2021/04/27 09:42:22;;;;;;;;;;;;;;;21.98;39.46;100563.66;5098792;28;836;-48
2021/04/27 09:44:49;;;;;;;;;;;;;;;22.00;39.50;100564.19;5098389;28;863;-49
2021/04/27 09:47:26;;;;;;;;;;;;;;;22.07;39.31;100555.44;5097935;28;1704;-50
2021/04/27 09:49:51;;;;;;;;;;;;;;;22.15;39.12;100547.16;5097898;28;876;-49
2021/04/27 09:52:17;;;;;;;;;;;;;;;21.93;39.62;100544.44;5098038;28;843;-56
2021/04/27 09:54:57;;;;;;;;;;;;;;;21.23;41.35;100544.66;5098266;28;863;-50
2021/04/27 09:57:30;;;;;;;;;;;;;;;21.03;41.62;100545.94;5098810;28;828;-50
2021/04/27 09:59:59;;;;;;;;;;;;;;;21.28;41.29;100558.38;5095033;28;1937;-55
2021/04/27 10:02:25;;;;;;;;;;;;;;;21.55;40.62;100556.69;5084482;28;1432;-49
2021/04/27 10:04:51;;;;;;;;;;;;;;;21.76;40.16;100553.44;5097871;28;828;-49
2021/04/27 10:07:17;;;;;;;;;;;;;;;21.90;39.62;100554.19;5097838;28;883;-47
2021/04/27 10:09:43;;;;;;;;;;;;;;;22.07;39.53;100545.16;5097946;28;868;-49
2021/04/27 10:12:08;;;;;;;;;;;;;;;22.13;39.21;100543.91;5097107;28;889;-51
2021/04/27 10:14:34;;;;;;;;;;;;;;;22.17;39.01;100539.34;5097514;28;1195;-49
2021/04/27 10:17:01;;;;;;;;;;;;;;;21.50;40.46;100532.72;5078759;28;832;-50
2021/04/27 10:19:27;;;;;;;;;;;;;;;21.61;40.35;100530.53;5097538;28;1921;-51
2021/04/27 10:21:52;;;;;;;;;;;;;;;21.24;41.17;100529.72;5097803;28;870;-49
2021/04/27 10:24:26;;;;;;;;;;;;;;;21.49;40.69;100525.53;5097362;28;880;-55
2021/04/27 10:26:51;;;;;;;;;;;;;;;21.78;40.05;100521.53;5080473;28;756;-50
2021/04/27 10:29:17;;;;;;;;;;;;;;;21.88;39.99;100523.22;5097984;28;819;-49
2021/04/27 10:31:43;;;;;;;;;;;;;;;22.05;39.36;100519.75;5097165;28;954;-52
2021/04/27 10:34:15;;;;;;;;;;;;;;;21.82;40.10;100513.41;5097447;28;870;-55
2021/04/27 10:36:50;;;;;;;;;;;;;;;21.48;40.92;100512.81;5097633;28;791;-49
2021/04/27 10:39:34;;;;;;;;;;;;;;;21.49;40.79;100508.09;5079471;28;1909;-55
2021/04/27 10:42:00;;;;;;;;;;;;;;;21.05;41.67;100504.97;5097542;28;787;-50
2021/04/27 10:44:25;;;;;;;;;;;;;;;21.60;40.44;100503.16;5079339;28;1327;-52
2021/04/27 10:46:52;;;;;;;;;;;;;;;21.84;40.08;100503.66;5078824;28;1705;-55
2021/04/27 10:49:23;;;;;;;;;;;;;;;21.73;40.24;100502.28;5096248;28;767;-47
2021/04/27 10:51:49;;;;;;;;;;;;;;;21.83;40.00;100507.56;5096818;28;824;-49
2021/04/27 10:54:15;;;;;;;;;;;;;;;21.61;40.42;100504.81;5096698;28;820;-55
2021/04/27 10:56:42;;;;;;;;;;;;;;;21.27;41.17;100489.56;5096676;28;832;-52
2021/04/27 10:59:09;;;;;;;;;;;;;;;21.13;41.53;100495.13;5078453;28;1978;-54
2021/04/27 11:01:35;;;;;;;;;;;;;;;20.60;42.92;100499.28;5096397;28;791;-51
2021/04/27 11:04:00;;;;;;;;;;;;;;;21.29;41.49;100499.16;5096932;28;813;-48
2021/04/27 11:06:26;;;;;;;;;;;;;;;21.53;40.90;100493.38;5096718;28;934;-49
2021/04/27 11:08:51;;;;;;;;;;;;;;;21.78;40.35;100496.63;5096683;28;817;-49
2021/04/27 11:11:18;;;;;;;;;;;;;;;21.99;39.61;100493.31;5096481;28;846;-59
2021/04/27 11:13:43;;;;;;;;;;;;;;;21.95;39.86;100492.31;5095616;28;1033;-47
2021/04/27 11:16:28;;;;;;;;;;;;;;;22.15;39.43;100485.44;5096343;28;888;-50
2021/04/27 11:19:14;;;;;;;;;;;;;;;21.70;40.33;100472.50;5096685;28;1910;-48
2021/04/27 11:21:40;;;;;;;;;;;;;;;21.40;41.09;100471.28;5088892;28;1138;-49
2021/04/27 11:24:08;;;;;;;;;;;;;;;20.95;41.93;100472.03;5096186;28;824;-55
2021/04/27 11:26:34;;;;;;;;;;;;;;;21.37;41.31;100467.97;5096189;28;956;-56
2021/04/27 11:29:00;;;;;;;;;;;;;;;21.65;40.64;100467.09;5096722;28;840;-54
2021/04/27 11:31:25;;;;;;;;;;;;;;;21.80;40.05;100458.38;5097728;28;832;-54
2021/04/27 11:33:57;;;;;;;;;;;;;;;21.90;40.01;100467.56;5101944;28;875;-55
2021/04/27 11:36:41;;;;;;;;;;;;;;;22.05;39.53;100462.41;5095825;28;896;-49
2021/04/27 11:39:13;;;;;;;;;;;;;;;21.84;40.11;100456.63;5094695;28;1909;-50
2021/04/27 11:42:01;;;;;;;;;;;;;;;21.71;40.26;100454.75;5091383;28;1095;-48
2021/04/27 11:44:39;;;;;;;;;;;;;;;21.17;41.34;100457.44;5077339;28;1086;-49
2021/04/27 11:47:23;;;;;;;;;;;;;;;21.34;41.26;100459.50;5103301;28;1400;-49
2021/04/27 11:49:52;;;;;;;;;;;;;;;21.70;40.37;100458.66;5089791;28;809;-54
2021/04/27 11:52:36;;;;;;;;;;;;;;;21.69;40.54;100445.94;5096676;28;848;-55
2021/04/27 11:55:03;;;;;;;;;;;;;;;22.07;39.37;100448.25;5096981;28;789;-48
2021/04/27 11:57:28;;;;;;;;;;;;;;;21.68;40.38;100449.84;5096292;28;1166;-49
2021/04/27 12:00:00;;;;;;;;;;;;;;;21.90;39.80;100446.22;5095800;28;1980;-55
2021/04/27 12:02:31;;;;;;;;;;;;;;;21.64;40.73;100443.31;5102845;28;832;-56
2021/04/27 12:04:57;;;;;;;;;;;;;;;21.42;41.08;100447.69;5095570;28;832;-52
2021/04/27 12:07:27;;;;;;;;;;;;;;;21.26;41.16;100435.38;5095692;28;860;-53
2021/04/27 12:09:53;;;;;;;;;;;;;;;21.41;41.05;100446.06;5095754;28;833;-50
2021/04/27 12:12:19;;;;;;;;;;;;;;;21.69;40.49;100434.88;5095328;28;864;-54
2021/04/27 12:14:51;;;;;;;;;;;;;;;21.88;40.04;100432.72;5095682;28;1029;-54
2021/04/27 12:17:25;;;;;;;;;;;;;;;21.88;39.87;100432.72;5102821;28;872;-62
2021/04/27 12:20:06;;;;;;;;;;;;;;;21.70;40.35;100431.78;5095560;28;1976;-53
2021/04/27 12:22:31;;;;;;;;;;;;;;;21.58;40.64;100434.31;5095292;28;884;-54
2021/04/27 12:24:57;;;;;;;;;;;;;;;21.19;41.36;100427.50;5095065;28;860;-54
2021/04/27 12:27:22;;;;;;;;;;;;;;;21.23;41.18;100430.47;5095415;28;832;-52
2021/04/27 12:30:06;;;;;;;;;;;;;;;21.58;40.72;100430.75;5095430;28;876;-53
2021/04/27 12:32:33;;;;;;;;;;;;;;;21.84;40.05;100433.66;5085506;28;863;-53
2021/04/27 12:35:02;;;;;;;;;;;;;;;21.90;39.70;100424.09;5095599;28;1246;-48
2021/04/27 12:37:30;;;;;;;;;;;;;;;22.06;39.58;100430.00;5095277;28;828;-51
2021/04/27 12:39:55;;;;;;;;;;;;;;;22.09;39.38;100429.38;5095351;28;1913;-55
2021/04/27 12:42:25;;;;;;;;;;;;;;;21.62;40.46;100417.91;5094907;28;868;-53
2021/04/27 12:44:57;;;;;;;;;;;;;;;21.48;40.63;100424.31;5095511;28;840;-52
2021/04/27 12:47:27;;;;;;;;;;;;;;;21.02;41.90;100430.94;5102382;28;1337;-55
2021/04/27 12:50:12;;;;;;;;;;;;;;;21.53;40.79;100438.03;5095505;28;836;-54
2021/04/27 12:52:49;;;;;;;;;;;;;;;21.78;40.30;100437.69;5095138;28;883;-53
2021/04/27 12:55:25;;;;;;;;;;;;;;;21.98;39.85;100436.31;5095240;28;812;-53
2021/04/27 12:57:51;;;;;;;;;;;;;;;21.37;41.06;100429.25;5095699;28;895;-51
2021/04/27 13:00:18;;;;;;;;;;;;;;;21.75;40.20;100433.59;5077406;28;1909;-53
2021/04/27 13:02:44;;;;;;;;;;;;;;;21.99;39.58;100437.94;5094943;28;990;-50